sensor_id;sensor_type;location;lat;lon;timestamp;P1;durP1;ratioP1;P2;durP2;ratioP2
56830;SDS011;42713;42.676;23.352;2022-12-29T00:00:04;37.45;;;21.27;;
56830;SDS011;42713;42.676;23.352;2022-12-29T00:02:30;34.40;;;19.15;;
56830;SDS011;42713;42.676;23.352;2022-12-29T00:04:56;29.60;;;16.45;;
56830;SDS011;42713;42.676;23.352;2022-12-29T00:07:21;27.40;;;16.65;;
56830;SDS011;42713;42.676;23.352;2022-12-29T00:09:46;31.17;;;17.75;;
56830;SDS011;42713;42.676;23.352;2022-12-29T00:12:12;33.70;;;18.70;;
56830;SDS011;42713;42.676;23.352;2022-12-29T00:14:37;32.65;;;18.50;;
56830;SDS011;42713;42.676;23.352;2022-12-29T00:17:21;41.20;;;20.80;;
56830;SDS011;42713;42.676;23.352;2022-12-29T00:19:47;38.05;;;21.02;;
56830;SDS011;42713;42.676;23.352;2022-12-29T00:22:31;46.92;;;21.83;;
56830;SDS011;42713;42.676;23.352;2022-12-29T00:25:15;36.22;;;19.58;;
56830;SDS011;42713;42.676;23.352;2022-12-29T00:27:59;38.10;;;18.02;;
56830;SDS011;42713;42.676;23.352;2022-12-29T00:30:43;33.22;;;19.33;;
56830;SDS011;42713;42.676;23.352;2022-12-29T00:33:31;39.40;;;20.08;;
56830;SDS011;42713;42.676;23.352;2022-12-29T00:36:20;35.80;;;20.20;;
56830;SDS011;42713;42.676;23.352;2022-12-29T00:38:55;40.05;;;19.85;;
56830;SDS011;42713;42.676;23.352;2022-12-29T00:41:42;31.85;;;18.40;;
56830;SDS011;42713;42.676;23.352;2022-12-29T00:44:27;31.98;;;15.88;;
56830;SDS011;42713;42.676;23.352;2022-12-29T00:46:52;36.80;;;17.77;;
56830;SDS011;42713;42.676;23.352;2022-12-29T00:49:17;28.60;;;17.52;;
56830;SDS011;42713;42.676;23.352;2022-12-29T00:51:57;30.60;;;17.15;;
56830;SDS011;42713;42.676;23.352;2022-12-29T00:54:31;32.78;;;17.02;;
56830;SDS011;42713;42.676;23.352;2022-12-29T00:56:58;31.63;;;16.30;;
56830;SDS011;42713;42.676;23.352;2022-12-29T00:59:24;29.75;;;16.17;;
56830;SDS011;42713;42.676;23.352;2022-12-29T01:01:50;37.20;;;19.08;;
56830;SDS011;42713;42.676;23.352;2022-12-29T01:04:17;29.65;;;16.83;;
56830;SDS011;42713;42.676;23.352;2022-12-29T01:06:43;33.47;;;17.08;;
56830;SDS011;42713;42.676;23.352;2022-12-29T01:09:09;30.38;;;16.98;;
56830;SDS011;42713;42.676;23.352;2022-12-29T01:11:54;34.15;;;17.33;;
56830;SDS011;42713;42.676;23.352;2022-12-29T01:14:20;29.85;;;17.05;;
56830;SDS011;42713;42.676;23.352;2022-12-29T01:16:45;33.72;;;17.40;;
56830;SDS011;42713;42.676;23.352;2022-12-29T01:19:12;32.97;;;16.25;;
56830;SDS011;42713;42.676;23.352;2022-12-29T01:21:38;31.10;;;16.10;;
56830;SDS011;42713;42.676;23.352;2022-12-29T01:24:04;27.85;;;15.20;;
56830;SDS011;42713;42.676;23.352;2022-12-29T01:26:29;27.65;;;15.43;;
56830;SDS011;42713;42.676;23.352;2022-12-29T01:28:55;26.85;;;15.13;;
56830;SDS011;42713;42.676;23.352;2022-12-29T01:31:20;27.10;;;15.48;;
56830;SDS011;42713;42.676;23.352;2022-12-29T01:33:46;26.88;;;15.00;;
56830;SDS011;42713;42.676;23.352;2022-12-29T01:36:12;28.48;;;14.85;;
56830;SDS011;42713;42.676;23.352;2022-12-29T01:38:40;25.92;;;15.23;;
56830;SDS011;42713;42.676;23.352;2022-12-29T01:41:06;23.05;;;13.60;;
56830;SDS011;42713;42.676;23.352;2022-12-29T01:49:10;26.33;;;14.40;;
56830;SDS011;42713;42.676;23.352;2022-12-29T01:52:00;25.40;;;14.43;;
56830;SDS011;42713;42.676;23.352;2022-12-29T01:54:32;26.00;;;13.27;;
56830;SDS011;42713;42.676;23.352;2022-12-29T01:57:11;23.25;;;13.52;;
56830;SDS011;42713;42.676;23.352;2022-12-29T01:59:43;30.55;;;14.15;;
56830;SDS011;42713;42.676;23.352;2022-12-29T02:02:15;21.90;;;13.60;;
56830;SDS011;42713;42.676;23.352;2022-12-29T02:04:42;23.45;;;13.45;;
56830;SDS011;42713;42.676;23.352;2022-12-29T02:07:18;23.55;;;12.75;;
56830;SDS011;42713;42.676;23.352;2022-12-29T02:09:46;24.33;;;12.75;;
56830;SDS011;42713;42.676;23.352;2022-12-29T02:12:13;23.27;;;12.85;;
56830;SDS011;42713;42.676;23.352;2022-12-29T02:14:39;20.40;;;11.82;;
56830;SDS011;42713;42.676;23.352;2022-12-29T02:33:22;21.30;;;12.35;;
56830;SDS011;42713;42.676;23.352;2022-12-29T02:44:01;23.13;;;13.40;;
56830;SDS011;42713;42.676;23.352;2022-12-29T02:47:14;25.33;;;13.20;;
56830;SDS011;42713;42.676;23.352;2022-12-29T02:50:13;22.90;;;12.20;;
56830;SDS011;42713;42.676;23.352;2022-12-29T02:52:28;24.58;;;13.52;;
56830;SDS011;42713;42.676;23.352;2022-12-29T02:54:59;23.33;;;13.07;;
56830;SDS011;42713;42.676;23.352;2022-12-29T03:07:40;23.05;;;12.45;;
56830;SDS011;42713;42.676;23.352;2022-12-29T03:18:51;26.90;;;13.55;;
56830;SDS011;42713;42.676;23.352;2022-12-29T03:24:16;23.30;;;12.07;;
56830;SDS011;42713;42.676;23.352;2022-12-29T03:26:44;22.67;;;12.32;;
56830;SDS011;42713;42.676;23.352;2022-12-29T03:29:12;26.35;;;13.27;;
56830;SDS011;42713;42.676;23.352;2022-12-29T03:31:40;25.02;;;12.27;;
56830;SDS011;42713;42.676;23.352;2022-12-29T03:34:08;24.05;;;13.55;;
56830;SDS011;42713;42.676;23.352;2022-12-29T03:36:39;25.80;;;13.65;;
56830;SDS011;42713;42.676;23.352;2022-12-29T03:39:10;25.42;;;14.38;;
56830;SDS011;42713;42.676;23.352;2022-12-29T03:41:37;23.42;;;13.95;;
56830;SDS011;42713;42.676;23.352;2022-12-29T03:44:08;26.17;;;14.80;;
56830;SDS011;42713;42.676;23.352;2022-12-29T03:46:34;26.17;;;13.20;;
56830;SDS011;42713;42.676;23.352;2022-12-29T03:48:59;24.52;;;12.95;;
56830;SDS011;42713;42.676;23.352;2022-12-29T03:51:24;24.17;;;14.05;;
56830;SDS011;42713;42.676;23.352;2022-12-29T03:53:50;24.05;;;14.18;;
56830;SDS011;42713;42.676;23.352;2022-12-29T03:56:15;23.75;;;12.57;;
56830;SDS011;42713;42.676;23.352;2022-12-29T03:58:41;24.13;;;12.85;;
56830;SDS011;42713;42.676;23.352;2022-12-29T04:01:06;29.17;;;13.45;;
56830;SDS011;42713;42.676;23.352;2022-12-29T04:03:34;27.52;;;14.10;;
56830;SDS011;42713;42.676;23.352;2022-12-29T04:06:00;23.80;;;14.40;;
56830;SDS011;42713;42.676;23.352;2022-12-29T04:08:25;28.70;;;14.88;;
56830;SDS011;42713;42.676;23.352;2022-12-29T04:10:51;28.23;;;13.80;;
56830;SDS011;42713;42.676;23.352;2022-12-29T04:13:16;28.38;;;14.15;;
56830;SDS011;42713;42.676;23.352;2022-12-29T04:15:42;25.23;;;14.35;;
56830;SDS011;42713;42.676;23.352;2022-12-29T04:18:08;29.10;;;14.88;;
56830;SDS011;42713;42.676;23.352;2022-12-29T04:20:34;26.70;;;14.10;;
56830;SDS011;42713;42.676;23.352;2022-12-29T04:23:18;26.58;;;14.02;;
56830;SDS011;42713;42.676;23.352;2022-12-29T04:25:44;28.40;;;14.77;;
56830;SDS011;42713;42.676;23.352;2022-12-29T04:28:12;28.90;;;14.18;;
56830;SDS011;42713;42.676;23.352;2022-12-29T04:30:38;27.88;;;15.10;;
56830;SDS011;42713;42.676;23.352;2022-12-29T04:33:03;27.33;;;15.60;;
56830;SDS011;42713;42.676;23.352;2022-12-29T04:35:29;31.98;;;15.23;;
56830;SDS011;42713;42.676;23.352;2022-12-29T04:37:54;25.75;;;14.27;;
56830;SDS011;42713;42.676;23.352;2022-12-29T04:40:20;31.05;;;15.05;;
56830;SDS011;42713;42.676;23.352;2022-12-29T04:42:45;27.27;;;15.30;;
56830;SDS011;42713;42.676;23.352;2022-12-29T04:45:10;27.52;;;15.10;;
56830;SDS011;42713;42.676;23.352;2022-12-29T04:47:36;27.48;;;15.25;;
56830;SDS011;42713;42.676;23.352;2022-12-29T04:50:02;24.90;;;14.05;;
56830;SDS011;42713;42.676;23.352;2022-12-29T04:52:28;29.98;;;15.73;;
56830;SDS011;42713;42.676;23.352;2022-12-29T04:54:53;25.50;;;12.75;;
56830;SDS011;42713;42.676;23.352;2022-12-29T04:57:19;28.15;;;14.90;;
56830;SDS011;42713;42.676;23.352;2022-12-29T04:59:44;25.98;;;14.07;;
56830;SDS011;42713;42.676;23.352;2022-12-29T05:02:10;27.70;;;14.80;;
56830;SDS011;42713;42.676;23.352;2022-12-29T05:04:35;29.33;;;13.73;;
56830;SDS011;42713;42.676;23.352;2022-12-29T05:07:01;26.63;;;14.25;;
56830;SDS011;42713;42.676;23.352;2022-12-29T05:09:26;24.52;;;13.73;;
56830;SDS011;42713;42.676;23.352;2022-12-29T05:11:51;24.98;;;14.07;;
56830;SDS011;42713;42.676;23.352;2022-12-29T05:14:17;25.13;;;13.15;;
56830;SDS011;42713;42.676;23.352;2022-12-29T05:16:42;24.83;;;14.13;;
56830;SDS011;42713;42.676;23.352;2022-12-29T05:19:08;23.63;;;13.63;;
56830;SDS011;42713;42.676;23.352;2022-12-29T05:21:33;24.27;;;14.32;;
56830;SDS011;42713;42.676;23.352;2022-12-29T05:23:59;21.90;;;13.43;;
56830;SDS011;42713;42.676;23.352;2022-12-29T05:26:24;22.88;;;12.82;;
56830;SDS011;42713;42.676;23.352;2022-12-29T05:28:50;23.30;;;13.68;;
56830;SDS011;42713;42.676;23.352;2022-12-29T05:31:15;27.15;;;14.10;;
56830;SDS011;42713;42.676;23.352;2022-12-29T05:33:41;27.67;;;14.63;;
56830;SDS011;42713;42.676;23.352;2022-12-29T05:36:07;24.60;;;13.50;;
56830;SDS011;42713;42.676;23.352;2022-12-29T05:38:34;26.33;;;14.45;;
56830;SDS011;42713;42.676;23.352;2022-12-29T05:41:00;23.90;;;13.77;;
56830;SDS011;42713;42.676;23.352;2022-12-29T05:43:25;26.38;;;14.65;;
56830;SDS011;42713;42.676;23.352;2022-12-29T05:45:52;26.02;;;14.13;;
56830;SDS011;42713;42.676;23.352;2022-12-29T05:48:19;27.45;;;14.07;;
56830;SDS011;42713;42.676;23.352;2022-12-29T05:50:48;30.58;;;14.80;;
56830;SDS011;42713;42.676;23.352;2022-12-29T05:53:14;28.33;;;15.05;;
56830;SDS011;42713;42.676;23.352;2022-12-29T05:55:40;30.48;;;16.67;;
56830;SDS011;42713;42.676;23.352;2022-12-29T05:58:05;28.02;;;16.13;;
56830;SDS011;42713;42.676;23.352;2022-12-29T06:00:31;31.08;;;15.57;;
56830;SDS011;42713;42.676;23.352;2022-12-29T06:02:56;28.00;;;16.58;;
56830;SDS011;42713;42.676;23.352;2022-12-29T06:05:22;29.40;;;16.35;;
56830;SDS011;42713;42.676;23.352;2022-12-29T06:07:47;34.65;;;16.95;;
56830;SDS011;42713;42.676;23.352;2022-12-29T06:10:12;33.22;;;16.65;;
56830;SDS011;42713;42.676;23.352;2022-12-29T06:12:38;33.47;;;16.27;;
56830;SDS011;42713;42.676;23.352;2022-12-29T06:15:04;32.95;;;16.15;;
56830;SDS011;42713;42.676;23.352;2022-12-29T06:17:30;34.13;;;17.75;;
56830;SDS011;42713;42.676;23.352;2022-12-29T06:19:55;31.92;;;15.95;;
56830;SDS011;42713;42.676;23.352;2022-12-29T06:22:20;31.02;;;17.58;;
56830;SDS011;42713;42.676;23.352;2022-12-29T06:24:46;33.25;;;17.15;;
56830;SDS011;42713;42.676;23.352;2022-12-29T06:27:11;30.73;;;17.20;;
56830;SDS011;42713;42.676;23.352;2022-12-29T06:29:38;31.50;;;17.42;;
56830;SDS011;42713;42.676;23.352;2022-12-29T06:32:05;31.20;;;17.48;;
56830;SDS011;42713;42.676;23.352;2022-12-29T06:34:31;30.40;;;16.70;;
56830;SDS011;42713;42.676;23.352;2022-12-29T06:36:57;32.33;;;16.95;;
56830;SDS011;42713;42.676;23.352;2022-12-29T06:39:23;31.35;;;17.83;;
56830;SDS011;42713;42.676;23.352;2022-12-29T06:41:52;33.03;;;18.13;;
56830;SDS011;42713;42.676;23.352;2022-12-29T06:44:21;34.83;;;19.30;;
56830;SDS011;42713;42.676;23.352;2022-12-29T06:46:47;39.15;;;19.95;;
56830;SDS011;42713;42.676;23.352;2022-12-29T06:49:13;32.85;;;18.08;;
56830;SDS011;42713;42.676;23.352;2022-12-29T06:51:38;35.22;;;18.42;;
56830;SDS011;42713;42.676;23.352;2022-12-29T06:54:04;30.20;;;17.10;;
56830;SDS011;42713;42.676;23.352;2022-12-29T06:56:30;34.22;;;19.63;;
56830;SDS011;42713;42.676;23.352;2022-12-29T06:58:56;34.38;;;19.02;;
56830;SDS011;42713;42.676;23.352;2022-12-29T07:01:22;36.63;;;19.05;;
56830;SDS011;42713;42.676;23.352;2022-12-29T07:03:47;38.92;;;19.77;;
56830;SDS011;42713;42.676;23.352;2022-12-29T07:06:13;38.22;;;19.73;;
56830;SDS011;42713;42.676;23.352;2022-12-29T07:08:38;32.10;;;18.05;;
56830;SDS011;42713;42.676;23.352;2022-12-29T07:11:04;34.20;;;18.38;;
56830;SDS011;42713;42.676;23.352;2022-12-29T07:13:30;30.58;;;17.20;;
56830;SDS011;42713;42.676;23.352;2022-12-29T07:15:56;32.13;;;17.15;;
56830;SDS011;42713;42.676;23.352;2022-12-29T07:18:21;30.85;;;18.08;;
56830;SDS011;42713;42.676;23.352;2022-12-29T07:20:46;32.72;;;16.25;;
56830;SDS011;42713;42.676;23.352;2022-12-29T07:23:12;30.02;;;16.77;;
56830;SDS011;42713;42.676;23.352;2022-12-29T07:25:38;31.23;;;17.25;;
56830;SDS011;42713;42.676;23.352;2022-12-29T07:28:05;33.08;;;16.75;;
56830;SDS011;42713;42.676;23.352;2022-12-29T07:30:31;33.60;;;17.75;;
56830;SDS011;42713;42.676;23.352;2022-12-29T07:32:56;30.48;;;16.52;;
56830;SDS011;42713;42.676;23.352;2022-12-29T07:35:22;29.13;;;17.08;;
56830;SDS011;42713;42.676;23.352;2022-12-29T07:37:53;32.22;;;17.20;;
56830;SDS011;42713;42.676;23.352;2022-12-29T07:40:18;32.30;;;18.67;;
56830;SDS011;42713;42.676;23.352;2022-12-29T07:42:44;34.50;;;16.95;;
56830;SDS011;42713;42.676;23.352;2022-12-29T07:45:09;31.35;;;17.20;;
56830;SDS011;42713;42.676;23.352;2022-12-29T07:47:35;31.48;;;17.23;;
56830;SDS011;42713;42.676;23.352;2022-12-29T07:50:00;32.90;;;18.33;;
56830;SDS011;42713;42.676;23.352;2022-12-29T07:52:25;37.10;;;18.48;;
56830;SDS011;42713;42.676;23.352;2022-12-29T07:54:51;32.95;;;18.58;;
56830;SDS011;42713;42.676;23.352;2022-12-29T07:57:16;35.42;;;17.60;;
56830;SDS011;42713;42.676;23.352;2022-12-29T07:59:42;35.20;;;19.85;;
56830;SDS011;42713;42.676;23.352;2022-12-29T08:02:10;39.30;;;21.25;;
56830;SDS011;42713;42.676;23.352;2022-12-29T08:04:38;36.65;;;20.00;;
56830;SDS011;42713;42.676;23.352;2022-12-29T08:07:04;42.22;;;20.27;;
56830;SDS011;42713;42.676;23.352;2022-12-29T08:09:29;38.88;;;20.40;;
56830;SDS011;42713;42.676;23.352;2022-12-29T08:11:55;36.05;;;18.63;;
56830;SDS011;42713;42.676;23.352;2022-12-29T08:14:21;36.95;;;20.13;;
56830;SDS011;42713;42.676;23.352;2022-12-29T08:16:46;35.78;;;19.95;;
56830;SDS011;42713;42.676;23.352;2022-12-29T08:19:12;35.10;;;19.33;;
56830;SDS011;42713;42.676;23.352;2022-12-29T08:21:38;35.03;;;20.05;;
56830;SDS011;42713;42.676;23.352;2022-12-29T08:24:04;43.15;;;20.35;;
56830;SDS011;42713;42.676;23.352;2022-12-29T08:26:30;36.28;;;19.95;;
56830;SDS011;42713;42.676;23.352;2022-12-29T08:28:56;32.55;;;18.88;;
56830;SDS011;42713;42.676;23.352;2022-12-29T08:31:22;34.40;;;19.60;;
56830;SDS011;42713;42.676;23.352;2022-12-29T08:33:48;35.03;;;19.50;;
56830;SDS011;42713;42.676;23.352;2022-12-29T08:36:15;37.50;;;21.13;;
56830;SDS011;42713;42.676;23.352;2022-12-29T08:38:41;35.35;;;19.55;;
56830;SDS011;42713;42.676;23.352;2022-12-29T08:41:07;34.70;;;18.52;;
56830;SDS011;42713;42.676;23.352;2022-12-29T08:43:32;38.35;;;19.48;;
56830;SDS011;42713;42.676;23.352;2022-12-29T08:45:58;38.88;;;20.20;;
56830;SDS011;42713;42.676;23.352;2022-12-29T08:48:24;32.78;;;19.33;;
56830;SDS011;42713;42.676;23.352;2022-12-29T08:50:50;32.90;;;19.33;;
56830;SDS011;42713;42.676;23.352;2022-12-29T08:53:16;29.98;;;17.52;;
56830;SDS011;42713;42.676;23.352;2022-12-29T08:55:44;34.53;;;17.92;;
56830;SDS011;42713;42.676;23.352;2022-12-29T08:58:11;29.17;;;17.77;;
56830;SDS011;42713;42.676;23.352;2022-12-29T09:00:39;29.38;;;16.95;;
56830;SDS011;42713;42.676;23.352;2022-12-29T09:03:06;32.65;;;17.52;;
56830;SDS011;42713;42.676;23.352;2022-12-29T09:05:31;33.38;;;18.50;;
56830;SDS011;42713;42.676;23.352;2022-12-29T09:07:57;31.77;;;18.30;;
56830;SDS011;42713;42.676;23.352;2022-12-29T09:10:22;31.63;;;18.15;;
56830;SDS011;42713;42.676;23.352;2022-12-29T09:12:48;31.17;;;18.13;;
56830;SDS011;42713;42.676;23.352;2022-12-29T09:15:13;31.85;;;17.98;;
56830;SDS011;42713;42.676;23.352;2022-12-29T09:17:40;32.40;;;17.73;;
56830;SDS011;42713;42.676;23.352;2022-12-29T09:20:07;34.58;;;17.65;;
56830;SDS011;42713;42.676;23.352;2022-12-29T09:22:34;32.65;;;17.45;;
56830;SDS011;42713;42.676;23.352;2022-12-29T09:25:01;32.38;;;18.50;;
56830;SDS011;42713;42.676;23.352;2022-12-29T09:27:26;33.83;;;17.38;;
56830;SDS011;42713;42.676;23.352;2022-12-29T09:29:52;31.90;;;17.67;;
56830;SDS011;42713;42.676;23.352;2022-12-29T09:32:17;32.63;;;18.15;;
56830;SDS011;42713;42.676;23.352;2022-12-29T09:34:43;34.15;;;17.48;;
56830;SDS011;42713;42.676;23.352;2022-12-29T09:37:08;33.75;;;18.05;;
56830;SDS011;42713;42.676;23.352;2022-12-29T09:39:34;32.03;;;17.15;;
56830;SDS011;42713;42.676;23.352;2022-12-29T09:42:06;31.92;;;17.10;;
56830;SDS011;42713;42.676;23.352;2022-12-29T09:47:13;33.78;;;17.30;;
56830;SDS011;42713;42.676;23.352;2022-12-29T09:49:45;30.50;;;16.00;;
56830;SDS011;42713;42.676;23.352;2022-12-29T09:52:18;30.48;;;16.60;;
56830;SDS011;42713;42.676;23.352;2022-12-29T09:57:16;30.00;;;16.10;;
56830;SDS011;42713;42.676;23.352;2022-12-29T09:59:47;27.63;;;16.17;;
56830;SDS011;42713;42.676;23.352;2022-12-29T10:02:21;28.60;;;16.23;;
56830;SDS011;42713;42.676;23.352;2022-12-29T10:04:54;31.65;;;17.33;;
56830;SDS011;42713;42.676;23.352;2022-12-29T10:17:54;27.40;;;16.60;;
56830;SDS011;42713;42.676;23.352;2022-12-29T10:20:49;32.47;;;15.88;;
56830;SDS011;42713;42.676;23.352;2022-12-29T10:26:00;28.23;;;16.40;;
56830;SDS011;42713;42.676;23.352;2022-12-29T10:28:38;27.85;;;16.13;;
56830;SDS011;42713;42.676;23.352;2022-12-29T10:31:23;32.42;;;17.98;;
56830;SDS011;42713;42.676;23.352;2022-12-29T10:33:56;28.55;;;17.05;;
56830;SDS011;42713;42.676;23.352;2022-12-29T10:36:34;29.88;;;16.40;;
56830;SDS011;42713;42.676;23.352;2022-12-29T10:44:34;32.45;;;16.58;;
56830;SDS011;42713;42.676;23.352;2022-12-29T10:47:04;30.15;;;16.70;;
56830;SDS011;42713;42.676;23.352;2022-12-29T10:49:37;33.65;;;17.05;;
56830;SDS011;42713;42.676;23.352;2022-12-29T10:52:06;35.58;;;17.73;;
56830;SDS011;42713;42.676;23.352;2022-12-29T10:54:55;32.28;;;17.67;;
56830;SDS011;42713;42.676;23.352;2022-12-29T10:57:27;28.90;;;16.60;;
56830;SDS011;42713;42.676;23.352;2022-12-29T10:59:53;26.50;;;15.27;;
56830;SDS011;42713;42.676;23.352;2022-12-29T11:05:13;32.92;;;16.90;;
56830;SDS011;42713;42.676;23.352;2022-12-29T11:07:46;36.92;;;16.42;;
56830;SDS011;42713;42.676;23.352;2022-12-29T11:13:02;31.38;;;16.15;;
56830;SDS011;42713;42.676;23.352;2022-12-29T11:15:39;27.95;;;16.27;;
56830;SDS011;42713;42.676;23.352;2022-12-29T11:18:17;29.60;;;17.08;;
56830;SDS011;42713;42.676;23.352;2022-12-29T11:20:52;33.15;;;16.80;;
56830;SDS011;42713;42.676;23.352;2022-12-29T11:28:37;26.65;;;16.63;;
56830;SDS011;42713;42.676;23.352;2022-12-29T11:31:04;32.55;;;16.70;;
56830;SDS011;42713;42.676;23.352;2022-12-29T11:33:32;28.45;;;16.27;;
56830;SDS011;42713;42.676;23.352;2022-12-29T11:36:01;31.77;;;17.08;;
56830;SDS011;42713;42.676;23.352;2022-12-29T11:38:36;32.13;;;17.65;;
56830;SDS011;42713;42.676;23.352;2022-12-29T11:41:04;31.45;;;17.00;;
56830;SDS011;42713;42.676;23.352;2022-12-29T11:43:38;30.80;;;16.70;;
56830;SDS011;42713;42.676;23.352;2022-12-29T11:46:06;30.52;;;17.63;;
56830;SDS011;42713;42.676;23.352;2022-12-29T11:48:41;36.85;;;18.40;;
56830;SDS011;42713;42.676;23.352;2022-12-29T11:51:07;33.97;;;17.90;;
56830;SDS011;42713;42.676;23.352;2022-12-29T11:53:39;32.92;;;18.38;;
56830;SDS011;42713;42.676;23.352;2022-12-29T11:56:14;29.88;;;17.90;;
56830;SDS011;42713;42.676;23.352;2022-12-29T11:58:45;29.42;;;17.95;;
56830;SDS011;42713;42.676;23.352;2022-12-29T12:01:33;31.00;;;17.48;;
56830;SDS011;42713;42.676;23.352;2022-12-29T12:04:03;30.65;;;18.35;;
56830;SDS011;42713;42.676;23.352;2022-12-29T12:06:34;33.42;;;19.38;;
56830;SDS011;42713;42.676;23.352;2022-12-29T12:11:38;31.08;;;17.42;;
56830;SDS011;42713;42.676;23.352;2022-12-29T12:14:25;38.30;;;19.20;;
56830;SDS011;42713;42.676;23.352;2022-12-29T12:16:59;34.60;;;16.58;;
56830;SDS011;42713;42.676;23.352;2022-12-29T12:19:34;30.75;;;17.42;;
56830;SDS011;42713;42.676;23.352;2022-12-29T12:22:13;29.17;;;16.77;;
56830;SDS011;42713;42.676;23.352;2022-12-29T12:24:58;29.17;;;15.63;;
56830;SDS011;42713;42.676;23.352;2022-12-29T12:27:37;28.00;;;14.60;;
56830;SDS011;42713;42.676;23.352;2022-12-29T12:30:14;27.35;;;14.35;;
56830;SDS011;42713;42.676;23.352;2022-12-29T12:32:50;26.08;;;13.77;;
56830;SDS011;42713;42.676;23.352;2022-12-29T12:43:44;24.75;;;13.38;;
56830;SDS011;42713;42.676;23.352;2022-12-29T12:59:33;27.35;;;15.00;;
56830;SDS011;42713;42.676;23.352;2022-12-29T13:08:05;27.95;;;15.60;;
56830;SDS011;42713;42.676;23.352;2022-12-29T13:19:12;27.05;;;16.55;;
56830;SDS011;42713;42.676;23.352;2022-12-29T13:27:29;25.65;;;15.10;;
56830;SDS011;42713;42.676;23.352;2022-12-29T13:30:12;32.53;;;16.60;;
56830;SDS011;42713;42.676;23.352;2022-12-29T13:35:27;34.22;;;16.23;;
56830;SDS011;42713;42.676;23.352;2022-12-29T13:38:18;29.23;;;15.18;;
56830;SDS011;42713;42.676;23.352;2022-12-29T13:40:52;27.65;;;16.25;;
56830;SDS011;42713;42.676;23.352;2022-12-29T13:43:21;29.48;;;16.48;;
56830;SDS011;42713;42.676;23.352;2022-12-29T13:46:10;29.27;;;16.90;;
56830;SDS011;42713;42.676;23.352;2022-12-29T13:48:39;28.65;;;17.48;;
56830;SDS011;42713;42.676;23.352;2022-12-29T13:51:10;31.27;;;18.20;;
56830;SDS011;42713;42.676;23.352;2022-12-29T14:02:00;31.33;;;18.50;;
56830;SDS011;42713;42.676;23.352;2022-12-29T14:04:29;29.90;;;18.23;;
56830;SDS011;42713;42.676;23.352;2022-12-29T14:07:05;33.92;;;18.25;;
56830;SDS011;42713;42.676;23.352;2022-12-29T14:09:48;30.55;;;17.92;;
56830;SDS011;42713;42.676;23.352;2022-12-29T14:12:20;34.55;;;18.98;;
56830;SDS011;42713;42.676;23.352;2022-12-29T14:14:52;35.20;;;18.95;;
56830;SDS011;42713;42.676;23.352;2022-12-29T14:17:19;34.17;;;19.70;;
56830;SDS011;42713;42.676;23.352;2022-12-29T14:19:46;33.15;;;19.02;;
56830;SDS011;42713;42.676;23.352;2022-12-29T14:22:22;30.55;;;18.23;;
56830;SDS011;42713;42.676;23.352;2022-12-29T14:24:51;35.17;;;19.58;;
56830;SDS011;42713;42.676;23.352;2022-12-29T14:29:43;33.03;;;17.63;;
56830;SDS011;42713;42.676;23.352;2022-12-29T14:34:59;32.55;;;16.77;;
56830;SDS011;42713;42.676;23.352;2022-12-29T14:37:45;35.28;;;17.05;;
56830;SDS011;42713;42.676;23.352;2022-12-29T14:42:44;30.67;;;16.58;;
56830;SDS011;42713;42.676;23.352;2022-12-29T14:47:43;29.80;;;16.67;;
56830;SDS011;42713;42.676;23.352;2022-12-29T14:55:30;31.33;;;16.00;;
56830;SDS011;42713;42.676;23.352;2022-12-29T14:58:00;32.42;;;15.27;;
56830;SDS011;42713;42.676;23.352;2022-12-29T15:00:34;34.90;;;15.98;;
56830;SDS011;42713;42.676;23.352;2022-12-29T15:06:04;35.00;;;17.50;;
56830;SDS011;42713;42.676;23.352;2022-12-29T15:08:33;31.02;;;16.38;;
56830;SDS011;42713;42.676;23.352;2022-12-29T15:11:24;35.47;;;18.80;;
56830;SDS011;42713;42.676;23.352;2022-12-29T15:14:02;33.33;;;17.17;;
56830;SDS011;42713;42.676;23.352;2022-12-29T15:16:32;37.42;;;18.50;;
56830;SDS011;42713;42.676;23.352;2022-12-29T15:19:00;34.13;;;18.75;;
56830;SDS011;42713;42.676;23.352;2022-12-29T15:21:27;32.80;;;18.05;;
56830;SDS011;42713;42.676;23.352;2022-12-29T15:23:55;32.05;;;17.17;;
56830;SDS011;42713;42.676;23.352;2022-12-29T15:26:21;35.88;;;17.63;;
56830;SDS011;42713;42.676;23.352;2022-12-29T15:28:49;38.53;;;17.50;;
56830;SDS011;42713;42.676;23.352;2022-12-29T15:33:48;34.75;;;18.60;;
56830;SDS011;42713;42.676;23.352;2022-12-29T15:36:24;38.92;;;20.70;;
56830;SDS011;42713;42.676;23.352;2022-12-29T15:38:51;34.35;;;19.58;;
56830;SDS011;42713;42.676;23.352;2022-12-29T15:44:39;51.55;;;19.75;;
56830;SDS011;42713;42.676;23.352;2022-12-29T15:47:23;39.20;;;20.33;;
56830;SDS011;42713;42.676;23.352;2022-12-29T15:50:02;39.20;;;19.27;;
56830;SDS011;42713;42.676;23.352;2022-12-29T15:52:31;37.20;;;19.98;;
56830;SDS011;42713;42.676;23.352;2022-12-29T15:54:57;43.13;;;20.85;;
56830;SDS011;42713;42.676;23.352;2022-12-29T15:57:29;43.45;;;21.55;;
56830;SDS011;42713;42.676;23.352;2022-12-29T15:59:58;41.97;;;22.17;;
56830;SDS011;42713;42.676;23.352;2022-12-29T16:02:25;41.85;;;22.00;;
56830;SDS011;42713;42.676;23.352;2022-12-29T16:04:52;59.80;;;25.50;;
56830;SDS011;42713;42.676;23.352;2022-12-29T16:07:29;53.95;;;24.15;;
56830;SDS011;42713;42.676;23.352;2022-12-29T16:09:57;44.15;;;24.27;;
56830;SDS011;42713;42.676;23.352;2022-12-29T16:12:28;44.97;;;24.23;;
56830;SDS011;42713;42.676;23.352;2022-12-29T16:14:58;47.30;;;22.58;;
56830;SDS011;42713;42.676;23.352;2022-12-29T16:17:27;53.22;;;24.38;;
56830;SDS011;42713;42.676;23.352;2022-12-29T16:20:05;48.25;;;22.70;;
56830;SDS011;42713;42.676;23.352;2022-12-29T16:22:48;44.08;;;24.15;;
56830;SDS011;42713;42.676;23.352;2022-12-29T16:25:23;48.55;;;25.20;;
56830;SDS011;42713;42.676;23.352;2022-12-29T16:27:50;52.45;;;24.25;;
56830;SDS011;42713;42.676;23.352;2022-12-29T16:30:24;40.42;;;23.15;;
56830;SDS011;42713;42.676;23.352;2022-12-29T16:32:53;48.92;;;24.20;;
56830;SDS011;42713;42.676;23.352;2022-12-29T16:35:22;47.15;;;25.15;;
56830;SDS011;42713;42.676;23.352;2022-12-29T16:40:56;49.90;;;24.90;;
56830;SDS011;42713;42.676;23.352;2022-12-29T16:48:24;47.33;;;26.95;;
56830;SDS011;42713;42.676;23.352;2022-12-29T16:50:51;51.42;;;25.98;;
56830;SDS011;42713;42.676;23.352;2022-12-29T16:55:53;52.35;;;26.85;;
56830;SDS011;42713;42.676;23.352;2022-12-29T16:58:25;48.00;;;24.77;;
56830;SDS011;42713;42.676;23.352;2022-12-29T17:00:57;62.00;;;35.35;;
56830;SDS011;42713;42.676;23.352;2022-12-29T17:03:28;58.58;;;31.45;;
56830;SDS011;42713;42.676;23.352;2022-12-29T17:05:58;67.30;;;33.90;;
56830;SDS011;42713;42.676;23.352;2022-12-29T17:08:24;68.20;;;33.60;;
56830;SDS011;42713;42.676;23.352;2022-12-29T17:10:50;80.00;;;35.92;;
56830;SDS011;42713;42.676;23.352;2022-12-29T17:13:36;72.00;;;35.75;;
56830;SDS011;42713;42.676;23.352;2022-12-29T17:16:03;67.82;;;34.42;;
56830;SDS011;42713;42.676;23.352;2022-12-29T17:18:32;63.17;;;32.03;;